createdAt,value
2022-09-20T00:01:36.761Z,0.80
2022-09-20T00:04:07.135Z,1.02
2022-09-20T00:06:36.541Z,0.80
2022-09-20T00:09:06.654Z,1.10
2022-09-20T00:11:38.268Z,1.13
2022-09-20T00:14:09.623Z,1.10
2022-09-20T00:16:42.304Z,1.05
2022-09-20T00:19:19.374Z,1.00
2022-09-20T00:21:48.806Z,0.70
2022-09-20T00:24:17.955Z,0.93
2022-09-20T00:26:46.853Z,0.90
2022-09-20T00:29:15.781Z,1.05
2022-09-20T00:31:46.055Z,0.80
2022-09-20T00:34:32.533Z,0.93
2022-09-20T00:37:01.384Z,0.77
2022-09-20T00:39:30.287Z,0.70
2022-09-20T00:41:59.225Z,0.80
2022-09-20T00:44:43.889Z,0.80
2022-09-20T00:47:23.667Z,0.93
2022-09-20T00:49:57.559Z,0.85
2022-09-20T00:52:27.997Z,0.90
2022-09-20T00:54:58.403Z,0.93
2022-09-20T00:57:27.824Z,0.80
2022-09-20T00:59:56.843Z,0.95
2022-09-20T01:02:31.801Z,0.90
2022-09-20T01:05:02.023Z,1.00
2022-09-20T01:07:34.393Z,1.02
2022-09-20T01:10:03.302Z,0.80
2022-09-20T01:12:36.112Z,0.80
2022-09-20T01:15:07.201Z,1.15
2022-09-20T01:17:41.538Z,0.82
2022-09-20T01:20:15.898Z,0.82
2022-09-20T01:23:03.645Z,0.73
2022-09-20T01:25:56.988Z,0.90
2022-09-20T01:28:29.379Z,0.80
2022-09-20T01:31:05.741Z,0.80
2022-09-20T01:33:43.573Z,0.80
2022-09-20T01:36:25.179Z,0.65
2022-09-20T01:39:07.096Z,0.82
2022-09-20T01:41:41.838Z,1.10
2022-09-20T01:44:19.892Z,0.70
2022-09-20T01:47:00.001Z,1.30
2022-09-20T01:49:40.103Z,0.88
2022-09-20T01:52:53.378Z,0.80
2022-09-20T01:56:07.043Z,1.30
2022-09-20T01:59:23.279Z,1.00
2022-09-20T02:07:45.765Z,0.90
2022-09-20T02:10:36.367Z,0.95
2022-09-20T02:13:11.486Z,1.02
2022-09-20T02:18:46.965Z,1.20
2022-09-20T02:21:25.823Z,1.00
2022-09-20T02:24:08.659Z,1.15
2022-09-20T02:26:47.748Z,1.20
2022-09-20T02:29:33.805Z,1.33
2022-09-20T02:32:21.002Z,1.55
2022-09-20T02:35:27.290Z,1.50
2022-09-20T02:38:06.898Z,1.10
2022-09-20T02:40:56.296Z,1.42
2022-09-20T02:43:34.075Z,1.15
2022-09-20T02:46:08.869Z,1.27
2022-09-20T02:48:45.760Z,1.23
2022-09-20T02:51:25.859Z,0.95
2022-09-20T02:54:09.515Z,1.27
2022-09-20T02:56:46.763Z,0.93
2022-09-20T02:59:27.075Z,1.40
2022-09-20T03:02:08.843Z,1.20
2022-09-20T03:04:53.371Z,1.30
2022-09-20T03:07:33.621Z,1.20
2022-09-20T03:10:18.259Z,1.00
2022-09-20T03:13:08.587Z,1.10
2022-09-20T03:15:50.804Z,1.10
2022-09-20T03:18:28.302Z,0.93
2022-09-20T03:21:06.468Z,0.90
2022-09-20T03:23:53.244Z,0.93
2022-09-20T03:26:35.943Z,1.10
2022-09-20T03:29:06.747Z,0.90
2022-09-20T03:31:48.599Z,0.85
2022-09-20T03:34:30.982Z,0.90
2022-09-20T03:37:24.934Z,0.90
2022-09-20T03:40:24.743Z,1.00
2022-09-20T03:42:54.978Z,0.88
2022-09-20T03:45:47.684Z,0.90
2022-09-20T03:48:55.470Z,0.98
2022-09-20T03:51:33.927Z,0.90
2022-09-20T03:54:32.575Z,0.80
2022-09-20T03:57:31.787Z,1.00
2022-09-20T04:00:11.538Z,1.00
2022-09-20T04:03:02.102Z,1.00
2022-09-20T04:05:41.355Z,1.02
2022-09-20T04:08:25.806Z,1.00
2022-09-20T04:11:03.203Z,1.10
2022-09-20T04:13:38.311Z,0.93
2022-09-20T04:18:49.670Z,0.90
2022-09-20T04:21:24.882Z,1.10
2022-09-20T04:26:29.572Z,1.13
2022-09-20T04:29:05.196Z,1.00
2022-09-20T04:31:41.499Z,1.10
2022-09-20T04:34:17.361Z,1.10
2022-09-20T04:37:05.091Z,1.20
2022-09-20T04:39:44.323Z,1.05
2022-09-20T04:42:52.095Z,0.93
2022-09-20T04:46:14.422Z,1.08
2022-09-20T04:49:19.177Z,1.27
2022-09-20T04:52:23.419Z,1.20
2022-09-20T04:55:22.936Z,1.02
2022-09-20T04:58:39.024Z,1.83
2022-09-20T05:01:40.730Z,1.13
2022-09-20T05:04:45.663Z,1.10
2022-09-20T05:07:48.710Z,1.10
2022-09-20T05:10:45.091Z,1.10
2022-09-20T05:13:23.791Z,1.30
2022-09-20T05:16:02.218Z,1.35
2022-09-20T05:19:01.163Z,1.10
2022-09-20T05:21:58.593Z,1.50
2022-09-20T05:24:46.695Z,0.80
2022-09-20T05:27:34.824Z,1.23
2022-09-20T05:30:09.230Z,1.27
2022-09-20T05:32:46.692Z,1.73
2022-09-20T05:35:24.144Z,1.52
2022-09-20T05:38:06.637Z,1.10
2022-09-20T05:40:50.332Z,1.70
2022-09-20T05:43:28.847Z,1.20
2022-09-20T05:46:11.907Z,1.25
2022-09-20T05:48:53.392Z,4.20
2022-09-20T05:51:34.973Z,2.85
2022-09-20T05:54:29.843Z,1.63
2022-09-20T05:57:15.258Z,2.15
2022-09-20T05:59:58.040Z,1.17
2022-09-20T06:02:36.566Z,4.10
2022-09-20T06:05:15.086Z,1.55
2022-09-20T06:08:05.677Z,1.70
2022-09-20T06:11:04.624Z,2.65
2022-09-20T06:13:52.114Z,2.25
2022-09-20T06:16:31.342Z,1.10
2022-09-20T06:19:08.229Z,1.10
2022-09-20T06:21:46.447Z,1.13
2022-09-20T06:24:26.499Z,1.00
2022-09-20T06:27:00.429Z,0.90
2022-09-20T06:29:34.366Z,0.85
2022-09-20T06:32:03.841Z,1.05
2022-09-20T06:34:33.416Z,1.20
2022-09-20T06:37:31.344Z,1.10
2022-09-20T06:40:27.611Z,2.58
2022-09-20T06:43:00.360Z,3.70
2022-09-20T06:45:29.755Z,1.95
2022-09-20T06:48:01.110Z,1.30
2022-09-20T06:50:42.688Z,1.08
2022-09-20T06:53:23.902Z,1.20
2022-09-20T06:55:52.955Z,1.38
2022-09-20T06:58:23.287Z,1.40
2022-09-20T07:00:52.386Z,1.30
2022-09-20T07:03:21.549Z,1.90
2022-09-20T07:05:50.508Z,1.75
2022-09-20T07:08:19.442Z,2.88
2022-09-20T07:10:48.688Z,1.20
2022-09-20T07:13:19.440Z,1.15
2022-09-20T07:15:50.721Z,1.02
2022-09-20T07:18:19.600Z,1.20
2022-09-20T07:20:48.458Z,1.10
2022-09-20T07:23:18.740Z,1.20
2022-09-20T07:25:47.804Z,2.13
2022-09-20T07:28:16.710Z,1.45
2022-09-20T07:30:50.025Z,4.85
2022-09-20T07:33:21.721Z,1.75
2022-09-20T07:35:51.229Z,1.70
2022-09-20T07:38:20.070Z,2.03
2022-09-20T07:40:55.982Z,2.45
2022-09-20T07:43:25.126Z,1.60
2022-09-20T07:45:59.425Z,3.90
2022-09-20T07:48:31.541Z,3.15
2022-09-20T07:51:05.705Z,1.70
2022-09-20T07:53:38.084Z,1.90
2022-09-20T07:56:08.820Z,1.30
2022-09-20T07:58:37.899Z,1.20
2022-09-20T08:01:10.535Z,1.33
2022-09-20T15:32:11.930Z,3.40
2022-09-20T15:34:42.968Z,4.22
2022-09-20T15:37:15.848Z,3.85
2022-09-20T15:39:47.959Z,4.35
2022-09-20T15:42:19.530Z,3.58
2022-09-20T15:44:53.889Z,5.07
2022-09-20T15:47:41.944Z,5.70
2022-09-20T15:50:17.779Z,6.57
2022-09-20T15:52:50.867Z,6.35
2022-09-20T15:56:12.178Z,6.88
2022-09-20T15:58:48.826Z,5.78
2022-09-20T16:01:21.442Z,6.68
2022-09-20T16:04:22.596Z,6.80
2022-09-20T16:07:04.641Z,6.72
2022-09-20T16:09:38.230Z,5.18
2022-09-20T16:12:09.880Z,5.47
2022-09-20T16:14:40.219Z,5.03
2022-09-20T16:17:10.637Z,5.45
2022-09-20T16:19:42.969Z,5.93
2022-09-20T16:22:18.712Z,6.43
2022-09-20T16:24:50.869Z,7.97
2022-09-20T16:27:23.336Z,8.02
2022-09-20T16:29:54.149Z,8.13
2022-09-20T16:32:49.190Z,7.03
2022-09-20T16:35:21.898Z,6.68
2022-09-20T16:37:51.889Z,7.72
2022-09-20T16:40:22.930Z,8.02
2022-09-20T16:42:59.039Z,7.57
2022-09-20T16:45:29.613Z,7.80
2022-09-20T16:48:31.377Z,6.88
2022-09-20T16:51:03.774Z,8.18
2022-09-20T16:53:33.982Z,7.10
2022-09-20T16:56:06.322Z,6.57
2022-09-20T16:58:36.793Z,6.47
2022-09-20T17:01:08.950Z,6.38
2022-09-20T17:03:44.891Z,6.38
2022-09-20T17:06:19.263Z,6.38
2022-09-20T17:08:49.575Z,6.25
2022-09-20T17:11:23.964Z,6.20
2022-09-20T17:13:56.553Z,5.70
2022-09-20T17:16:28.799Z,5.40
2022-09-20T17:19:00.372Z,6.50
2022-09-20T17:21:32.751Z,5.88
2022-09-20T17:24:06.281Z,5.80
2022-09-20T17:26:38.617Z,6.88
2022-09-20T17:29:09.995Z,6.38
2022-09-20T17:31:41.885Z,6.65
2022-09-20T17:34:15.494Z,7.15
2022-09-20T17:36:47.853Z,6.82
2022-09-20T17:39:18.003Z,6.70
2022-09-20T17:41:51.036Z,6.85
2022-09-20T17:44:23.833Z,7.15
2022-09-20T17:46:57.108Z,6.13
2022-09-20T17:49:28.032Z,6.55
2022-09-20T17:51:59.961Z,5.82
2022-09-20T17:54:31.393Z,6.60
2022-09-20T17:57:01.141Z,6.15
2022-09-20T17:59:30.794Z,6.05
2022-09-20T18:01:59.936Z,4.57
2022-09-20T18:04:31.274Z,4.97
2022-09-20T18:07:04.363Z,5.25
2022-09-20T18:09:35.977Z,4.90
2022-09-20T18:12:06.777Z,5.95
2022-09-20T18:14:37.544Z,5.82
2022-09-20T18:17:07.278Z,6.75
2022-09-20T18:19:40.284Z,5.88
2022-09-20T18:22:11.732Z,6.05
2022-09-20T18:24:41.166Z,6.60
2022-09-20T18:27:10.969Z,5.40
2022-09-20T18:29:40.775Z,7.03
2022-09-20T18:32:18.029Z,8.52
2022-09-20T18:34:51.436Z,11.70
2022-09-20T18:37:25.065Z,16.73
2022-09-20T18:39:57.774Z,15.55
2022-09-20T18:42:28.164Z,20.23
2022-09-20T18:44:59.626Z,18.58
2022-09-20T18:47:30.739Z,18.67
2022-09-20T18:50:01.783Z,20.73
2022-09-20T18:52:36.023Z,17.13
2022-09-20T18:55:08.408Z,16.35
2022-09-20T18:57:39.347Z,14.30
2022-09-20T19:00:13.422Z,11.25
2022-09-20T19:03:09.473Z,10.50
2022-09-20T19:05:46.218Z,9.52
2022-09-20T19:08:30.279Z,9.77
2022-09-20T19:11:04.128Z,9.20
2022-09-20T19:13:40.469Z,9.38
2022-09-20T19:16:20.128Z,9.57
2022-09-20T19:19:12.183Z,8.60
2022-09-20T19:21:49.619Z,9.07
2022-09-20T19:24:33.777Z,8.35
2022-09-20T19:27:03.489Z,8.98
2022-09-20T19:29:33.801Z,9.07
2022-09-20T19:32:04.093Z,8.55
2022-09-20T19:34:34.726Z,7.10
2022-09-20T19:37:19.495Z,8.05
2022-09-20T19:40:04.179Z,8.37
2022-09-20T19:42:44.961Z,9.27
2022-09-20T19:45:23.509Z,8.77
2022-09-20T19:48:08.035Z,7.75
2022-09-20T19:50:41.505Z,8.23
2022-09-20T19:53:13.058Z,9.25
2022-09-20T19:55:48.417Z,10.40
2022-09-20T19:58:22.163Z,11.68
2022-09-20T20:00:52.032Z,10.80
2022-09-20T20:03:23.670Z,9.50
2022-09-20T20:06:05.692Z,13.20
2022-09-20T20:08:50.799Z,14.32
2022-09-20T20:11:36.666Z,13.73
2022-09-20T20:14:18.559Z,10.68
2022-09-20T20:17:01.864Z,9.48
2022-09-20T20:19:51.036Z,9.98
2022-09-20T20:22:31.842Z,11.60
2022-09-20T20:25:01.343Z,11.15
2022-09-20T20:27:33.623Z,10.20
2022-09-20T20:30:02.715Z,7.82
2022-09-20T20:32:33.502Z,8.75
2022-09-20T20:35:02.625Z,8.30
2022-09-20T20:37:35.335Z,9.10
2022-09-20T20:40:05.002Z,9.77
2022-09-20T20:42:36.040Z,8.45
2022-09-20T20:45:15.784Z,8.30
2022-09-20T20:47:44.659Z,8.57
2022-09-20T20:50:13.570Z,8.57
2022-09-20T20:52:42.558Z,8.10
2022-09-20T20:55:11.738Z,7.78
2022-09-20T20:57:42.303Z,7.13
2022-09-20T21:00:12.382Z,7.95
2022-09-20T21:02:41.317Z,6.88
2022-09-20T21:05:10.614Z,7.70
2022-09-20T21:07:39.620Z,7.38
2022-09-20T21:10:09.457Z,7.75
2022-09-20T21:12:41.240Z,6.20
2022-09-20T21:15:11.774Z,7.25
2022-09-20T21:17:40.902Z,5.75
2022-09-20T21:20:11.392Z,7.43
2022-09-20T21:22:40.307Z,10.85
2022-09-20T21:25:10.071Z,8.00
2022-09-20T21:27:39.637Z,6.88
2022-09-20T21:30:11.620Z,6.78
2022-09-20T21:32:40.660Z,7.28
2022-09-20T21:35:10.401Z,7.95
2022-09-20T21:37:39.631Z,6.45
2022-09-20T21:40:10.373Z,8.15
2022-09-20T21:42:39.412Z,7.40
2022-09-20T21:45:11.132Z,7.13
2022-09-20T21:47:40.383Z,7.03
2022-09-20T21:50:10.458Z,5.40
2022-09-20T21:52:39.363Z,6.97
2022-09-20T21:55:10.898Z,9.20
2022-09-20T21:57:40.036Z,9.20
2022-09-20T22:00:11.834Z,10.80
2022-09-20T22:02:43.557Z,10.07
2022-09-20T22:05:13.467Z,8.25
2022-09-20T22:07:42.434Z,9.48
2022-09-20T22:10:11.446Z,9.88
2022-09-20T22:12:40.374Z,10.38
2022-09-20T22:15:11.779Z,24.08
2022-09-20T22:17:40.772Z,34.90
2022-09-20T22:20:10.398Z,31.35
2022-09-20T22:22:39.686Z,24.65
2022-09-20T22:25:09.902Z,20.98
2022-09-20T22:27:39.283Z,20.42
2022-09-20T22:30:11.400Z,21.23
2022-09-20T22:32:40.689Z,21.88
2022-09-20T22:35:10.672Z,17.00
2022-09-20T22:37:40.846Z,13.80
2022-09-20T22:40:10.507Z,15.30
2022-09-20T22:42:39.782Z,12.80
2022-09-20T22:45:12.333Z,13.90
2022-09-20T22:47:42.295Z,16.90
2022-09-20T22:50:11.472Z,15.88
2022-09-20T22:52:40.450Z,17.63
2022-09-20T22:55:10.420Z,18.90
2022-09-20T22:57:39.961Z,17.85
2022-09-20T23:00:12.064Z,15.88
2022-09-20T23:02:41.018Z,15.98
2022-09-20T23:05:11.094Z,12.30
2022-09-20T23:07:40.511Z,12.05
2022-09-20T23:10:10.073Z,14.02
2022-09-20T23:12:40.461Z,9.75
2022-09-20T23:15:11.956Z,11.45
2022-09-20T23:17:42.737Z,12.70
2022-09-20T23:20:11.792Z,12.43
2022-09-20T23:22:40.812Z,11.75
2022-09-20T23:25:10.753Z,13.20
2022-09-20T23:27:39.735Z,12.38
2022-09-20T23:30:11.201Z,8.90
2022-09-20T23:32:40.111Z,9.30
2022-09-20T23:35:10.021Z,8.55
2022-09-20T23:37:39.946Z,9.00
2022-09-20T23:40:10.407Z,9.13
2022-09-20T23:42:40.249Z,10.13
2022-09-20T23:45:12.499Z,8.57
2022-09-20T23:47:41.561Z,8.85
2022-09-20T23:50:10.735Z,7.45
2022-09-20T23:52:39.795Z,6.97
2022-09-20T23:55:09.622Z,7.32
2022-09-20T23:57:38.591Z,6.80
